sensor_id;sensor_type;location;lat;lon;timestamp;pressure;altitude;pressure_sealevel;temperature;humidity
27144;BME280;14672;50.250;8.312;2023-05-22T00:01:25;98527.28;;;18.89;62.38
27144;BME280;14672;50.250;8.312;2023-05-22T00:03:54;98519.69;;;18.91;63.16
27144;BME280;14672;50.250;8.312;2023-05-22T00:06:22;98514.72;;;18.81;62.81
27144;BME280;14672;50.250;8.312;2023-05-22T00:08:48;98515.78;;;18.77;62.35
27144;BME280;14672;50.250;8.312;2023-05-22T00:11:14;98516.56;;;18.78;62.92
27144;BME280;14672;50.250;8.312;2023-05-22T00:13:40;98508.44;;;18.76;62.53
27144;BME280;14672;50.250;8.312;2023-05-22T00:16:06;98509.50;;;18.57;63.32
27144;BME280;14672;50.250;8.312;2023-05-22T00:18:32;98515.28;;;18.62;62.61
27144;BME280;14672;50.250;8.312;2023-05-22T00:20:58;98507.44;;;18.63;62.65
27144;BME280;14672;50.250;8.312;2023-05-22T00:23:24;98504.78;;;18.59;63.24
27144;BME280;14672;50.250;8.312;2023-05-22T00:25:52;98513.16;;;18.57;62.85
27144;BME280;14672;50.250;8.312;2023-05-22T00:28:18;98513.66;;;18.50;62.49
27144;BME280;14672;50.250;8.312;2023-05-22T00:30:44;98514.19;;;18.43;62.86
27144;BME280;14672;50.250;8.312;2023-05-22T00:33:09;98511.81;;;18.47;62.97
27144;BME280;14672;50.250;8.312;2023-05-22T00:35:36;98499.78;;;18.38;62.63
27144;BME280;14672;50.250;8.312;2023-05-22T00:38:03;98508.66;;;18.40;62.74
27144;BME280;14672;50.250;8.312;2023-05-22T00:40:31;98503.72;;;18.46;62.23
27144;BME280;14672;50.250;8.312;2023-05-22T00:42:57;98509.19;;;18.38;63.34
27144;BME280;14672;50.250;8.312;2023-05-22T00:45:23;98506.31;;;18.38;63.43
27144;BME280;14672;50.250;8.312;2023-05-22T00:47:50;98493.75;;;18.19;63.71
27144;BME280;14672;50.250;8.312;2023-05-22T00:50:17;98508.13;;;18.36;63.41
27144;BME280;14672;50.250;8.312;2023-05-22T00:52:45;98500.78;;;18.23;63.65
27144;BME280;14672;50.250;8.312;2023-05-22T00:55:12;98506.28;;;18.16;63.47
27144;BME280;14672;50.250;8.312;2023-05-22T00:57:39;98511.00;;;18.19;63.69
27144;BME280;14672;50.250;8.312;2023-05-22T01:00:11;98509.16;;;18.16;64.10
27144;BME280;14672;50.250;8.312;2023-05-22T01:02:37;98516.19;;;18.09;63.54
27144;BME280;14672;50.250;8.312;2023-05-22T01:05:05;98508.88;;;18.03;63.71
27144;BME280;14672;50.250;8.312;2023-05-22T01:07:33;98503.13;;;18.03;63.90
27144;BME280;14672;50.250;8.312;2023-05-22T01:10:03;98509.88;;;18.00;63.54
27144;BME280;14672;50.250;8.312;2023-05-22T01:18:24;98506.75;;;17.98;64.91
27144;BME280;14672;50.250;8.312;2023-05-22T01:27:00;98513.03;;;17.91;65.00
27144;BME280;14672;50.250;8.312;2023-05-22T01:32:40;98519.53;;;17.86;64.39
27144;BME280;14672;50.250;8.312;2023-05-22T01:35:10;98517.41;;;17.80;64.79
27144;BME280;14672;50.250;8.312;2023-05-22T01:37:37;98519.25;;;17.83;64.46
27144;BME280;14672;50.250;8.312;2023-05-22T01:40:04;98518.47;;;17.83;63.99
27144;BME280;14672;50.250;8.312;2023-05-22T01:42:32;98522.38;;;17.74;64.32
27144;BME280;14672;50.250;8.312;2023-05-22T01:44:59;98523.94;;;17.75;64.64
27144;BME280;14672;50.250;8.312;2023-05-22T01:47:24;98524.44;;;17.79;65.31
27144;BME280;14672;50.250;8.312;2023-05-22T01:49:50;98517.66;;;17.71;64.87
27144;BME280;14672;50.250;8.312;2023-05-22T01:52:29;98521.53;;;17.68;65.29
27144;BME280;14672;50.250;8.312;2023-05-22T01:55:17;98518.72;;;17.79;65.94
27144;BME280;14672;50.250;8.312;2023-05-22T01:58:02;98515.78;;;17.68;65.70
27144;BME280;14672;50.250;8.312;2023-05-22T02:00:34;98518.94;;;17.70;65.34
27144;BME280;14672;50.250;8.312;2023-05-22T02:03:08;98520.00;;;17.73;65.83
27144;BME280;14672;50.250;8.312;2023-05-22T02:05:38;98515.78;;;17.68;65.92
27144;BME280;14672;50.250;8.312;2023-05-22T02:08:04;98524.66;;;17.65;65.57
27144;BME280;14672;50.250;8.312;2023-05-22T02:10:32;98521.53;;;17.68;66.01
27144;BME280;14672;50.250;8.312;2023-05-22T02:12:59;98529.38;;;17.62;66.00
27144;BME280;14672;50.250;8.312;2023-05-22T02:15:25;98529.91;;;17.66;65.74
27144;BME280;14672;50.250;8.312;2023-05-22T02:17:51;98524.91;;;17.61;66.13
27144;BME280;14672;50.250;8.312;2023-05-22T02:20:18;98521.94;;;17.45;65.91
27144;BME280;14672;50.250;8.312;2023-05-22T02:22:45;98524.31;;;17.52;65.98
27144;BME280;14672;50.250;8.312;2023-05-22T02:25:15;98526.97;;;17.55;65.57
27144;BME280;14672;50.250;8.312;2023-05-22T02:27:45;98521.00;;;17.59;65.49
27144;BME280;14672;50.250;8.312;2023-05-22T02:30:12;98523.06;;;17.58;65.21
27144;BME280;14672;50.250;8.312;2023-05-22T02:32:39;98524.84;;;17.56;65.42
27144;BME280;14672;50.250;8.312;2023-05-22T02:35:06;98519.34;;;17.47;65.28
27144;BME280;14672;50.250;8.312;2023-05-22T02:37:32;98517.50;;;17.44;65.79
27144;BME280;14672;50.250;8.312;2023-05-22T02:39:58;98518.50;;;17.41;65.43
27144;BME280;14672;50.250;8.312;2023-05-22T02:42:24;98517.50;;;17.44;64.65
27144;BME280;14672;50.250;8.312;2023-05-22T02:44:50;98514.00;;;17.28;65.22
27144;BME280;14672;50.250;8.312;2023-05-22T02:47:16;98504.09;;;17.29;65.06
27144;BME280;14672;50.250;8.312;2023-05-22T02:49:43;98508.81;;;17.32;65.58
27144;BME280;14672;50.250;8.312;2023-05-22T02:52:09;98510.34;;;17.28;65.97
27144;BME280;14672;50.250;8.312;2023-05-22T02:54:35;98516.63;;;17.26;65.31
27144;BME280;14672;50.250;8.312;2023-05-22T02:57:01;98503.59;;;17.31;65.41
27144;BME280;14672;50.250;8.312;2023-05-22T02:59:27;98507.75;;;17.30;65.19
27144;BME280;14672;50.250;8.312;2023-05-22T03:01:53;98508.19;;;17.12;65.13
27144;BME280;14672;50.250;8.312;2023-05-22T03:04:19;98513.63;;;17.10;65.44
27144;BME280;14672;50.250;8.312;2023-05-22T03:06:45;98509.78;;;17.18;64.67
27144;BME280;14672;50.250;8.312;2023-05-22T03:09:11;98501.41;;;17.15;64.70
27144;BME280;14672;50.250;8.312;2023-05-22T03:11:37;98505.03;;;17.10;64.90
27144;BME280;14672;50.250;8.312;2023-05-22T03:14:03;98505.50;;;17.03;65.83
27144;BME280;14672;50.250;8.312;2023-05-22T03:16:28;98503.38;;;16.98;65.57
27144;BME280;14672;50.250;8.312;2023-05-22T03:19:08;98499.78;;;17.03;65.67
27144;BME280;14672;50.250;8.312;2023-05-22T03:21:35;98503.88;;;16.96;65.47
27144;BME280;14672;50.250;8.312;2023-05-22T03:24:01;98494.78;;;16.98;65.39
27144;BME280;14672;50.250;8.312;2023-05-22T03:26:27;98500.56;;;17.09;65.43
27144;BME280;14672;50.250;8.312;2023-05-22T03:28:54;98500.50;;;16.98;65.43
27144;BME280;14672;50.250;8.312;2023-05-22T03:31:19;98494.03;;;17.03;65.75
27144;BME280;14672;50.250;8.312;2023-05-22T03:33:48;98494.22;;;16.94;65.41
27144;BME280;14672;50.250;8.312;2023-05-22T03:36:14;98499.41;;;16.89;65.53
27144;BME280;14672;50.250;8.312;2023-05-22T03:38:41;98496.59;;;16.95;65.18
27144;BME280;14672;50.250;8.312;2023-05-22T03:41:07;98504.59;;;16.85;65.36
27144;BME280;14672;50.250;8.312;2023-05-22T03:43:33;98506.72;;;16.90;65.83
27144;BME280;14672;50.250;8.312;2023-05-22T03:45:59;98490.75;;;16.84;65.99
27144;BME280;14672;50.250;8.312;2023-05-22T03:48:28;98498.31;;;16.81;66.50
27144;BME280;14672;50.250;8.312;2023-05-22T03:50:54;98499.09;;;16.82;66.83
27144;BME280;14672;50.250;8.312;2023-05-22T03:53:22;98499.91;;;16.88;66.35
27144;BME280;14672;50.250;8.312;2023-05-22T03:55:48;98486.88;;;16.87;66.50
27144;BME280;14672;50.250;8.312;2023-05-22T03:58:14;98489.75;;;16.87;66.25
27144;BME280;14672;50.250;8.312;2023-05-22T04:00:40;98500.44;;;16.86;66.57
27144;BME280;14672;50.250;8.312;2023-05-22T04:03:07;98493.91;;;16.86;65.96
27144;BME280;14672;50.250;8.312;2023-05-22T04:05:38;98503.88;;;16.96;65.84
27144;BME280;14672;50.250;8.312;2023-05-22T04:08:04;98499.16;;;16.87;65.74
27144;BME280;14672;50.250;8.312;2023-05-22T04:10:30;98494.69;;;16.86;66.10
27144;BME280;14672;50.250;8.312;2023-05-22T04:12:56;98501.47;;;16.83;66.41
27144;BME280;14672;50.250;8.312;2023-05-22T04:15:22;98506.25;;;16.98;66.56
27144;BME280;14672;50.250;8.312;2023-05-22T04:17:48;98509.34;;;16.94;66.08
27144;BME280;14672;50.250;8.312;2023-05-22T04:20:14;98511.72;;;16.96;66.24
27144;BME280;14672;50.250;8.312;2023-05-22T04:22:40;98502.84;;;16.94;66.75
27144;BME280;14672;50.250;8.312;2023-05-22T04:25:06;98514.06;;;16.97;66.87
27144;BME280;14672;50.250;8.312;2023-05-22T04:27:32;98513.56;;;16.99;66.64
27144;BME280;14672;50.250;8.312;2023-05-22T04:29:59;98512.00;;;16.98;67.33
27144;BME280;14672;50.250;8.312;2023-05-22T04:32:27;98518.47;;;16.92;67.21
27144;BME280;14672;50.250;8.312;2023-05-22T04:34:54;98517.69;;;16.92;67.41
27144;BME280;14672;50.250;8.312;2023-05-22T04:37:23;98521.66;;;17.00;67.75
27144;BME280;14672;50.250;8.312;2023-05-22T04:39:51;98519.06;;;17.02;68.22
27144;BME280;14672;50.250;8.312;2023-05-22T04:42:18;98524.63;;;17.11;68.21
27144;BME280;14672;50.250;8.312;2023-05-22T04:44:44;98528.28;;;17.12;67.77
27144;BME280;14672;50.250;8.312;2023-05-22T04:47:10;98533.19;;;17.06;67.98
27144;BME280;14672;50.250;8.312;2023-05-22T04:49:41;98534.53;;;17.16;68.22
27144;BME280;14672;50.250;8.312;2023-05-22T04:52:08;98538.97;;;17.11;68.23
27144;BME280;14672;50.250;8.312;2023-05-22T04:54:36;98535.06;;;17.14;69.44
27144;BME280;14672;50.250;8.312;2023-05-22T04:57:03;98534.63;;;17.27;68.72
27144;BME280;14672;50.250;8.312;2023-05-22T04:59:30;98546.91;;;17.27;68.93
27144;BME280;14672;50.250;8.312;2023-05-22T05:01:58;98543.25;;;17.32;68.96
27144;BME280;14672;50.250;8.312;2023-05-22T05:04:23;98549.25;;;17.29;69.17
27144;BME280;14672;50.250;8.312;2023-05-22T05:06:49;98543.81;;;17.36;69.05
27144;BME280;14672;50.250;8.312;2023-05-22T05:09:19;98543.31;;;17.38;69.09
27144;BME280;14672;50.250;8.312;2023-05-22T05:11:46;98548.31;;;17.49;68.37
27144;BME280;14672;50.250;8.312;2023-05-22T05:14:12;98548.06;;;17.52;68.92
27144;BME280;14672;50.250;8.312;2023-05-22T05:16:37;98543.97;;;17.59;68.75
27144;BME280;14672;50.250;8.312;2023-05-22T05:19:03;98543.19;;;17.58;68.85
27144;BME280;14672;50.250;8.312;2023-05-22T05:21:29;98545.31;;;17.63;68.52
27144;BME280;14672;50.250;8.312;2023-05-22T05:23:55;98545.84;;;17.67;68.65
27144;BME280;14672;50.250;8.312;2023-05-22T05:26:21;98543.72;;;17.68;68.27
27144;BME280;14672;50.250;8.312;2023-05-22T05:28:49;98540.94;;;17.79;68.61
27144;BME280;14672;50.250;8.312;2023-05-22T05:31:15;98540.41;;;17.80;68.27
27144;BME280;14672;50.250;8.312;2023-05-22T05:33:42;98549.06;;;17.92;68.44
27144;BME280;14672;50.250;8.312;2023-05-22T05:36:08;98549.38;;;17.99;68.75
27144;BME280;14672;50.250;8.312;2023-05-22T05:38:33;98547.53;;;18.02;69.02
27144;BME280;14672;50.250;8.312;2023-05-22T05:40:59;98553.31;;;18.13;69.03
27144;BME280;14672;50.250;8.312;2023-05-22T05:43:25;98549.66;;;18.12;69.61
27144;BME280;14672;50.250;8.312;2023-05-22T05:45:51;98541.59;;;18.22;69.12
27144;BME280;14672;50.250;8.312;2023-05-22T05:48:20;98542.13;;;18.31;69.40
27144;BME280;14672;50.250;8.312;2023-05-22T05:50:48;98543.72;;;18.38;69.89
27144;BME280;14672;50.250;8.312;2023-05-22T05:53:15;98549.47;;;18.44;69.81
27144;BME280;14672;50.250;8.312;2023-05-22T05:55:44;98557.59;;;18.51;69.89
27144;BME280;14672;50.250;8.312;2023-05-22T05:58:09;98555.56;;;18.62;69.71
27144;BME280;14672;50.250;8.312;2023-05-22T06:00:35;98553.44;;;18.68;69.65
27144;BME280;14672;50.250;8.312;2023-05-22T06:03:01;98560.25;;;18.76;69.47
27144;BME280;14672;50.250;8.312;2023-05-22T06:05:27;98559.72;;;18.84;69.51
27144;BME280;14672;50.250;8.312;2023-05-22T06:07:53;98565.25;;;18.93;69.65
27144;BME280;14672;50.250;8.312;2023-05-22T06:10:22;98557.91;;;18.97;70.29
27144;BME280;14672;50.250;8.312;2023-05-22T06:12:48;98555.03;;;19.14;70.22
27144;BME280;14672;50.250;8.312;2023-05-22T06:15:14;98562.34;;;19.20;70.04
27144;BME280;14672;50.250;8.312;2023-05-22T06:17:40;98556.59;;;19.26;70.15
27144;BME280;14672;50.250;8.312;2023-05-22T06:20:07;98563.09;;;19.38;70.65
27144;BME280;14672;50.250;8.312;2023-05-22T06:22:33;98563.09;;;19.49;70.50
27144;BME280;14672;50.250;8.312;2023-05-22T06:24:59;98567.28;;;19.53;70.04
27144;BME280;14672;50.250;8.312;2023-05-22T06:27:24;98559.91;;;19.63;70.05
27144;BME280;14672;50.250;8.312;2023-05-22T06:29:52;98566.97;;;19.74;69.63
27144;BME280;14672;50.250;8.312;2023-05-22T06:32:18;98555.69;;;19.81;69.77
27144;BME280;14672;50.250;8.312;2023-05-22T06:34:46;98553.00;;;19.94;69.57
27144;BME280;14672;50.250;8.312;2023-05-22T06:37:12;98560.56;;;20.03;68.95
27144;BME280;14672;50.250;8.312;2023-05-22T06:39:39;98561.03;;;20.12;69.30
27144;BME280;14672;50.250;8.312;2023-05-22T06:42:05;98559.66;;;20.25;69.25
27144;BME280;14672;50.250;8.312;2023-05-22T06:44:31;98556.50;;;20.28;69.43
27144;BME280;14672;50.250;8.312;2023-05-22T06:46:57;98558.25;;;20.42;68.80
27144;BME280;14672;50.250;8.312;2023-05-22T06:49:22;98557.75;;;20.44;69.19
27144;BME280;14672;50.250;8.312;2023-05-22T06:51:49;98561.34;;;20.55;67.89
27144;BME280;14672;50.250;8.312;2023-05-22T06:54:15;98561.81;;;20.65;67.40
27144;BME280;14672;50.250;8.312;2023-05-22T06:56:40;98560.22;;;20.70;67.59
27144;BME280;14672;50.250;8.312;2023-05-22T06:59:06;98562.53;;;20.71;67.30
27144;BME280;14672;50.250;8.312;2023-05-22T07:01:32;98558.50;;;20.85;66.74
27144;BME280;14672;50.250;8.312;2023-05-22T07:03:59;98561.03;;;20.94;66.37
27144;BME280;14672;50.250;8.312;2023-05-22T07:06:26;98552.63;;;20.96;66.23
27144;BME280;14672;50.250;8.312;2023-05-22T07:08:52;98562.81;;;21.03;65.99
27144;BME280;14672;50.250;8.312;2023-05-22T07:11:18;98559.63;;;21.12;65.73
27144;BME280;14672;50.250;8.312;2023-05-22T07:13:44;98559.84;;;21.14;66.31
27144;BME280;14672;50.250;8.312;2023-05-22T07:16:10;98560.78;;;21.28;65.80
27144;BME280;14672;50.250;8.312;2023-05-22T07:18:36;98565.78;;;21.27;65.42
27144;BME280;14672;50.250;8.312;2023-05-22T07:21:02;98565.13;;;21.40;64.86
27144;BME280;14672;50.250;8.312;2023-05-22T07:23:28;98558.25;;;21.43;64.96
27144;BME280;14672;50.250;8.312;2023-05-22T07:25:54;98565.81;;;21.51;65.02
27144;BME280;14672;50.250;8.312;2023-05-22T07:28:20;98559.09;;;21.62;64.17
27144;BME280;14672;50.250;8.312;2023-05-22T07:30:45;98555.94;;;21.66;64.23
27144;BME280;14672;50.250;8.312;2023-05-22T07:33:11;98556.34;;;21.75;63.63
27144;BME280;14672;50.250;8.312;2023-05-22T07:35:38;98558.09;;;21.84;62.82
27144;BME280;14672;50.250;8.312;2023-05-22T07:38:04;98557.25;;;21.89;62.50
27144;BME280;14672;50.250;8.312;2023-05-22T07:40:30;98553.50;;;21.94;61.69
27144;BME280;14672;50.250;8.312;2023-05-22T07:42:55;98557.13;;;22.00;62.11
27144;BME280;14672;50.250;8.312;2023-05-22T07:45:21;98553.59;;;22.07;62.25
27144;BME280;14672;50.250;8.312;2023-05-22T07:47:47;98550.66;;;22.13;62.72
27144;BME280;14672;50.250;8.312;2023-05-22T07:50:13;98543.94;;;22.23;62.59
27144;BME280;14672;50.250;8.312;2023-05-22T07:52:38;98547.97;;;22.33;61.94
27144;BME280;14672;50.250;8.312;2023-05-22T07:55:05;98555.50;;;22.42;61.87
27144;BME280;14672;50.250;8.312;2023-05-22T07:57:32;98552.22;;;22.51;61.43
27144;BME280;14672;50.250;8.312;2023-05-22T08:00:02;98558.41;;;22.61;62.14
27144;BME280;14672;50.250;8.312;2023-05-22T08:02:37;98560.19;;;22.64;61.55
27144;BME280;14672;50.250;8.312;2023-05-22T08:05:03;98558.16;;;22.77;61.25
27144;BME280;14672;50.250;8.312;2023-05-22T08:07:29;98563.41;;;22.79;61.11
27144;BME280;14672;50.250;8.312;2023-05-22T08:09:55;98564.13;;;22.85;60.51
27144;BME280;14672;50.250;8.312;2023-05-22T08:12:20;98567.81;;;22.99;60.94
27144;BME280;14672;50.250;8.312;2023-05-22T08:14:46;98561.69;;;23.02;61.09
27144;BME280;14672;50.250;8.312;2023-05-22T08:17:12;98558.41;;;23.11;61.31
27144;BME280;14672;50.250;8.312;2023-05-22T08:19:38;98553.53;;;23.19;62.07
27144;BME280;14672;50.250;8.312;2023-05-22T08:22:03;98549.41;;;23.28;62.00
27144;BME280;14672;50.250;8.312;2023-05-22T08:24:29;98552.66;;;23.37;61.81
27144;BME280;14672;50.250;8.312;2023-05-22T08:26:56;98560.34;;;23.35;60.70
27144;BME280;14672;50.250;8.312;2023-05-22T08:29:23;98549.75;;;23.37;60.36
27144;BME280;14672;50.250;8.312;2023-05-22T08:31:49;98549.34;;;23.47;61.12
27144;BME280;14672;50.250;8.312;2023-05-22T08:34:16;98545.59;;;23.52;60.77
27144;BME280;14672;50.250;8.312;2023-05-22T08:36:42;98540.78;;;23.67;61.21
27144;BME280;14672;50.250;8.312;2023-05-22T08:39:09;98544.81;;;23.77;61.06
27144;BME280;14672;50.250;8.312;2023-05-22T08:41:35;98537.56;;;23.84;60.70
27144;BME280;14672;50.250;8.312;2023-05-22T08:44:01;98537.44;;;23.90;60.21
27144;BME280;14672;50.250;8.312;2023-05-22T08:46:27;98541.47;;;24.00;59.70
27144;BME280;14672;50.250;8.312;2023-05-22T08:48:57;98550.28;;;24.07;59.56
27144;BME280;14672;50.250;8.312;2023-05-22T08:51:28;98537.53;;;24.10;59.00
27144;BME280;14672;50.250;8.312;2023-05-22T08:53:56;98538.00;;;24.27;59.31
27144;BME280;14672;50.250;8.312;2023-05-22T08:56:22;98532.81;;;24.33;59.12
27144;BME280;14672;50.250;8.312;2023-05-22T08:58:49;98536.41;;;24.40;57.26
27144;BME280;14672;50.250;8.312;2023-05-22T09:01:16;98531.47;;;24.48;57.06
27144;BME280;14672;50.250;8.312;2023-05-22T09:03:42;98532.75;;;24.60;56.68
27144;BME280;14672;50.250;8.312;2023-05-22T09:06:09;98532.06;;;24.67;57.17
27144;BME280;14672;50.250;8.312;2023-05-22T09:08:39;98530.56;;;24.73;56.59
27144;BME280;14672;50.250;8.312;2023-05-22T09:11:06;98522.00;;;24.68;55.97
27144;BME280;14672;50.250;8.312;2023-05-22T09:13:32;98527.13;;;24.75;55.02
27144;BME280;14672;50.250;8.312;2023-05-22T09:15:59;98531.13;;;24.85;55.16
27144;BME280;14672;50.250;8.312;2023-05-22T09:18:31;98516.81;;;24.87;54.39
27144;BME280;14672;50.250;8.312;2023-05-22T09:20:59;98517.66;;;24.95;54.82
27144;BME280;14672;50.250;8.312;2023-05-22T09:23:27;98519.38;;;25.11;56.84
27144;BME280;14672;50.250;8.312;2023-05-22T09:25:57;98518.94;;;25.07;55.36
27144;BME280;14672;50.250;8.312;2023-05-22T09:28:24;98521.63;;;25.05;55.62
27144;BME280;14672;50.250;8.312;2023-05-22T09:30:53;98520.47;;;25.08;56.40
27144;BME280;14672;50.250;8.312;2023-05-22T09:33:21;98523.19;;;25.27;56.96
27144;BME280;14672;50.250;8.312;2023-05-22T09:35:50;98524.94;;;25.30;56.16
27144;BME280;14672;50.250;8.312;2023-05-22T09:38:16;98517.25;;;25.40;56.36
27144;BME280;14672;50.250;8.312;2023-05-22T09:40:42;98513.72;;;25.55;56.17
27144;BME280;14672;50.250;8.312;2023-05-22T09:43:09;98522.47;;;25.55;56.05
27144;BME280;14672;50.250;8.312;2023-05-22T09:45:37;98517.66;;;25.65;55.37
27144;BME280;14672;50.250;8.312;2023-05-22T09:48:04;98518.03;;;25.61;54.64
27144;BME280;14672;50.250;8.312;2023-05-22T09:50:31;98519.66;;;25.70;54.96
27144;BME280;14672;50.250;8.312;2023-05-22T09:53:02;98525.31;;;25.76;55.42
27144;BME280;14672;50.250;8.312;2023-05-22T09:55:29;98516.00;;;25.77;54.88
27144;BME280;14672;50.250;8.312;2023-05-22T09:57:55;98523.44;;;25.86;55.53
27144;BME280;14672;50.250;8.312;2023-05-22T10:00:24;98520.75;;;25.88;55.70
27144;BME280;14672;50.250;8.312;2023-05-22T10:02:57;98522.88;;;25.87;54.75
27144;BME280;14672;50.250;8.312;2023-05-22T10:05:29;98513.72;;;25.83;55.32
27144;BME280;14672;50.250;8.312;2023-05-22T10:08:02;98516.09;;;25.92;55.83
27144;BME280;14672;50.250;8.312;2023-05-22T10:10:29;98526.91;;;25.84;55.88
27144;BME280;14672;50.250;8.312;2023-05-22T10:13:03;98525.97;;;25.89;55.98
27144;BME280;14672;50.250;8.312;2023-05-22T10:15:30;98524.59;;;25.83;55.48
27144;BME280;14672;50.250;8.312;2023-05-22T10:17:57;98509.47;;;25.92;55.12
27144;BME280;14672;50.250;8.312;2023-05-22T10:20:25;98511.84;;;25.93;55.10
27144;BME280;14672;50.250;8.312;2023-05-22T10:22:53;98516.72;;;25.98;55.28
27144;BME280;14672;50.250;8.312;2023-05-22T10:25:19;98511.50;;;26.04;54.53
27144;BME280;14672;50.250;8.312;2023-05-22T10:27:51;98517.31;;;26.04;54.30
27144;BME280;14672;50.250;8.312;2023-05-22T10:33:24;98509.22;;;26.10;53.78
27144;BME280;14672;50.250;8.312;2023-05-22T10:35:57;98505.53;;;26.10;54.20
27144;BME280;14672;50.250;8.312;2023-05-22T10:41:13;98502.13;;;26.27;53.65
27144;BME280;14672;50.250;8.312;2023-05-22T10:43:46;98497.53;;;26.39;54.36
27144;BME280;14672;50.250;8.312;2023-05-22T10:46:13;98489.00;;;26.48;53.69
27144;BME280;14672;50.250;8.312;2023-05-22T10:48:47;98486.69;;;26.54;53.88
27144;BME280;14672;50.250;8.312;2023-05-22T10:51:18;98488.28;;;26.63;53.29
27144;BME280;14672;50.250;8.312;2023-05-22T10:53:49;98490.44;;;26.78;53.39
27144;BME280;14672;50.250;8.312;2023-05-22T10:56:18;98478.81;;;26.85;52.84
27144;BME280;14672;50.250;8.312;2023-05-22T10:59:01;98483.47;;;26.96;52.65
27144;BME280;14672;50.250;8.312;2023-05-22T11:01:29;98476.69;;;27.08;52.68
27144;BME280;14672;50.250;8.312;2023-05-22T11:07:01;98477.06;;;27.13;50.95
27144;BME280;14672;50.250;8.312;2023-05-22T11:12:25;98479.59;;;27.39;50.98
27144;BME280;14672;50.250;8.312;2023-05-22T11:17:40;98474.56;;;27.47;50.16
27144;BME280;14672;50.250;8.312;2023-05-22T11:20:20;98471.81;;;27.64;49.72
27144;BME280;14672;50.250;8.312;2023-05-22T11:22:56;98470.22;;;27.78;49.13
27144;BME280;14672;50.250;8.312;2023-05-22T11:25:23;98472.13;;;27.83;48.87
27144;BME280;14672;50.250;8.312;2023-05-22T11:27:49;98469.03;;;27.81;48.45
27144;BME280;14672;50.250;8.312;2023-05-22T11:30:15;98463.50;;;28.08;49.01
27144;BME280;14672;50.250;8.312;2023-05-22T11:32:44;98460.13;;;28.27;50.12
27144;BME280;14672;50.250;8.312;2023-05-22T11:35:14;98449.09;;;28.18;47.02
27144;BME280;14672;50.250;8.312;2023-05-22T11:37:41;98453.91;;;28.30;47.09
27144;BME280;14672;50.250;8.312;2023-05-22T11:40:08;98454.34;;;28.52;48.03
27144;BME280;14672;50.250;8.312;2023-05-22T11:42:35;98447.97;;;28.45;46.62
27144;BME280;14672;50.250;8.312;2023-05-22T11:45:03;98445.72;;;28.61;47.44
27144;BME280;14672;50.250;8.312;2023-05-22T11:47:30;98443.09;;;28.80;47.84
27144;BME280;14672;50.250;8.312;2023-05-22T11:49:56;98449.56;;;28.71;46.46
27144;BME280;14672;50.250;8.312;2023-05-22T11:52:23;98440.59;;;28.77;46.17
27144;BME280;14672;50.250;8.312;2023-05-22T11:54:51;98442.63;;;28.91;47.19
27144;BME280;14672;50.250;8.312;2023-05-22T11:57:18;98430.63;;;29.05;46.06
27144;BME280;14672;50.250;8.312;2023-05-22T11:59:46;98434.34;;;29.22;45.64
27144;BME280;14672;50.250;8.312;2023-05-22T12:02:12;98433.47;;;29.37;45.80
27144;BME280;14672;50.250;8.312;2023-05-22T12:04:41;98434.34;;;29.47;44.68
27144;BME280;14672;50.250;8.312;2023-05-22T12:07:07;98427.47;;;29.52;44.70
27144;BME280;14672;50.250;8.312;2023-05-22T12:09:33;98431.94;;;29.70;44.40
27144;BME280;14672;50.250;8.312;2023-05-22T12:11:59;98425.75;;;29.83;45.41
27144;BME280;14672;50.250;8.312;2023-05-22T12:14:26;98418.91;;;29.89;45.33
27144;BME280;14672;50.250;8.312;2023-05-22T12:16:53;98421.97;;;29.91;44.54
27144;BME280;14672;50.250;8.312;2023-05-22T12:19:20;98410.09;;;30.06;44.60
27144;BME280;14672;50.250;8.312;2023-05-22T12:21:49;98418.50;;;30.19;44.35
27144;BME280;14672;50.250;8.312;2023-05-22T12:24:15;98421.22;;;30.34;43.88
27144;BME280;14672;50.250;8.312;2023-05-22T12:26:55;98421.63;;;30.21;43.99
27144;BME280;14672;50.250;8.312;2023-05-22T12:29:21;98408.63;;;30.41;44.42
27144;BME280;14672;50.250;8.312;2023-05-22T12:31:48;98403.63;;;30.51;43.82
27144;BME280;14672;50.250;8.312;2023-05-22T12:34:15;98407.44;;;30.71;44.32
27144;BME280;14672;50.250;8.312;2023-05-22T12:36:45;98400.13;;;30.89;44.31
27144;BME280;14672;50.250;8.312;2023-05-22T12:39:17;98403.59;;;31.05;43.97
27144;BME280;14672;50.250;8.312;2023-05-22T12:41:44;98409.16;;;31.10;43.59
27144;BME280;14672;50.250;8.312;2023-05-22T12:44:14;98404.25;;;31.22;42.79
27144;BME280;14672;50.250;8.312;2023-05-22T12:46:41;98409.84;;;31.28;42.40
27144;BME280;14672;50.250;8.312;2023-05-22T12:49:07;98399.50;;;31.37;42.71
27144;BME280;14672;50.250;8.312;2023-05-22T12:51:33;98398.56;;;31.25;42.77
27144;BME280;14672;50.250;8.312;2023-05-22T12:54:01;98395.78;;;31.46;42.06
27144;BME280;14672;50.250;8.312;2023-05-22T12:56:28;98392.44;;;31.59;41.96
27144;BME280;14672;50.250;8.312;2023-05-22T12:58:58;98393.84;;;31.67;42.49
27144;BME280;14672;50.250;8.312;2023-05-22T13:01:24;98393.69;;;31.75;41.41
27144;BME280;14672;50.250;8.312;2023-05-22T13:03:51;98387.84;;;31.85;41.19
27144;BME280;14672;50.250;8.312;2023-05-22T13:06:18;98394.47;;;31.85;41.21
27144;BME280;14672;50.250;8.312;2023-05-22T13:08:44;98387.81;;;32.04;41.46
27144;BME280;14672;50.250;8.312;2023-05-22T13:11:10;98392.91;;;31.94;nan
27144;BME280;14672;50.250;8.312;2023-05-22T13:13:39;98390.44;;;32.00;40.74
27144;BME280;14672;50.250;8.312;2023-05-22T13:16:05;98390.28;;;32.17;40.34
27144;BME280;14672;50.250;8.312;2023-05-22T13:18:31;98395.84;;;32.32;41.11
27144;BME280;14672;50.250;8.312;2023-05-22T13:20:57;98386.03;;;32.49;40.53
27144;BME280;14672;50.250;8.312;2023-05-22T13:23:24;98385.59;;;32.43;39.81
27144;BME280;14672;50.250;8.312;2023-05-22T13:25:50;98390.34;;;32.57;40.58
27144;BME280;14672;50.250;8.312;2023-05-22T13:28:16;98393.78;;;32.54;40.44
27144;BME280;14672;50.250;8.312;2023-05-22T13:30:42;98392.31;;;32.14;39.73